createdAt,value
2023-01-05T00:00:27.054Z,93.95
2023-01-05T00:01:26.866Z,93.95
2023-01-05T00:02:26.940Z,93.64
2023-01-05T00:03:26.880Z,93.64
2023-01-05T00:04:26.919Z,93.44
2023-01-05T00:05:26.847Z,93.33
2023-01-05T00:06:27.082Z,93.54
2023-01-05T00:07:26.816Z,93.60
2023-01-05T00:08:30.260Z,93.39
2023-01-05T00:09:26.806Z,93.39
2023-01-05T00:10:26.804Z,93.02
2023-01-05T00:11:26.788Z,92.78
2023-01-05T00:12:26.794Z,92.98
2023-01-05T00:13:26.777Z,92.68
2023-01-05T00:14:26.860Z,92.27
2023-01-05T00:15:26.799Z,92.36
2023-01-05T00:16:26.783Z,92.27
2023-01-05T00:17:26.767Z,92.06
2023-01-05T00:18:26.739Z,92.16
2023-01-05T00:19:26.699Z,92.47
2023-01-05T00:20:26.722Z,92.68
2023-01-05T00:21:26.677Z,92.78
2023-01-05T00:22:26.718Z,92.98
2023-01-05T00:23:26.753Z,92.98
2023-01-05T00:24:26.649Z,93.19
2023-01-05T00:25:26.639Z,93.39
2023-01-05T00:26:26.619Z,93.70
2023-01-05T00:27:26.630Z,93.70
2023-01-05T00:28:26.645Z,93.80
2023-01-05T00:29:26.610Z,93.80
2023-01-05T00:30:26.615Z,93.80
2023-01-05T00:31:26.638Z,93.70
2023-01-05T00:32:26.587Z,93.90
2023-01-05T00:33:26.595Z,93.90
2023-01-05T00:34:26.575Z,94.11
2023-01-05T00:35:26.539Z,94.01
2023-01-05T00:36:26.553Z,94.21
2023-01-05T00:37:26.514Z,94.32
2023-01-05T00:38:26.506Z,94.21
2023-01-05T00:39:26.529Z,94.11
2023-01-05T00:40:26.579Z,94.21
2023-01-05T00:41:26.485Z,94.21
2023-01-05T00:42:26.484Z,94.52
2023-01-05T00:43:26.600Z,94.73
2023-01-05T00:44:26.453Z,94.93
2023-01-05T00:45:26.557Z,95.03
2023-01-05T00:46:26.479Z,95.14
2023-01-05T00:47:26.432Z,95.54
2023-01-05T00:48:26.408Z,95.65
2023-01-05T00:49:26.413Z,95.54
2023-01-05T00:50:26.387Z,95.75
2023-01-05T00:51:26.411Z,95.44
2023-01-05T00:52:26.352Z,95.24
2023-01-05T00:53:26.405Z,95.24
2023-01-05T00:54:26.335Z,95.34
2023-01-05T00:55:26.371Z,95.34
2023-01-05T00:56:26.327Z,95.44
2023-01-05T00:57:26.349Z,95.24
2023-01-05T00:58:26.295Z,95.34
2023-01-05T00:59:26.308Z,95.24
2023-01-05T01:00:26.295Z,95.44
2023-01-05T01:01:26.403Z,95.34
2023-01-05T01:02:26.388Z,95.49
2023-01-05T01:03:26.343Z,95.34
2023-01-05T01:04:26.245Z,95.65
2023-01-05T01:05:26.320Z,95.49
2023-01-05T01:06:26.241Z,95.49
2023-01-05T01:07:26.231Z,95.28
2023-01-05T01:08:26.210Z,95.39
2023-01-05T01:09:26.204Z,95.14
2023-01-05T01:10:26.167Z,95.34
2023-01-05T01:11:26.186Z,95.14
2023-01-05T01:12:26.203Z,94.93
2023-01-05T01:13:26.169Z,95.18
2023-01-05T01:14:26.145Z,94.98
2023-01-05T01:15:26.140Z,94.46
2023-01-05T01:16:26.158Z,94.83
2023-01-05T01:17:26.120Z,94.62
2023-01-05T01:18:26.113Z,94.73
2023-01-05T01:19:26.104Z,95.03
2023-01-05T01:20:26.080Z,95.14
2023-01-05T01:21:26.073Z,95.14
2023-01-05T01:22:26.063Z,95.14
2023-01-05T01:23:26.081Z,95.44
2023-01-05T01:24:26.070Z,95.49
2023-01-05T01:25:26.072Z,95.39
2023-01-05T01:26:26.030Z,95.39
2023-01-05T01:27:26.033Z,95.39
2023-01-05T01:28:26.007Z,95.39
2023-01-05T01:29:26.016Z,95.69
2023-01-05T01:30:26.031Z,95.49
2023-01-05T01:31:25.967Z,95.07
2023-01-05T01:32:25.962Z,95.28
2023-01-05T01:33:25.940Z,94.87
2023-01-05T01:34:25.978Z,94.87
2023-01-05T01:35:25.945Z,94.87
2023-01-05T01:36:25.954Z,94.77
2023-01-05T01:37:25.923Z,95.07
2023-01-05T01:38:25.936Z,95.07
2023-01-05T01:39:25.957Z,95.07
2023-01-05T01:40:25.918Z,95.18
2023-01-05T01:41:25.920Z,94.98
2023-01-05T01:42:25.872Z,94.98
2023-01-05T01:43:25.865Z,94.98
2023-01-05T01:44:25.854Z,94.87
2023-01-05T01:45:25.828Z,94.87
2023-01-05T01:46:25.957Z,94.56
2023-01-05T01:47:25.814Z,94.77
2023-01-05T01:48:25.809Z,94.87
2023-01-05T01:49:25.805Z,94.98
2023-01-05T01:50:25.775Z,94.98
2023-01-05T01:51:25.797Z,94.87
2023-01-05T01:52:25.793Z,94.98
2023-01-05T01:53:25.763Z,94.98
2023-01-05T01:54:25.735Z,95.18
2023-01-05T01:55:25.718Z,95.18
2023-01-05T01:56:25.728Z,95.18
2023-01-05T01:57:25.726Z,94.98
2023-01-05T01:58:25.703Z,94.98
2023-01-05T01:59:25.701Z,95.18
2023-01-05T02:00:25.672Z,95.18
2023-01-05T02:01:25.784Z,95.28
2023-01-05T02:02:25.869Z,95.28
2023-01-05T02:03:25.665Z,94.67
2023-01-05T02:04:25.690Z,94.87
2023-01-05T02:05:25.649Z,94.87
2023-01-05T02:06:25.611Z,94.77
2023-01-05T02:07:25.653Z,94.56
2023-01-05T02:08:25.597Z,94.26
2023-01-05T02:09:25.592Z,94.15
2023-01-05T02:10:25.589Z,94.36
2023-01-05T02:11:25.560Z,94.46
2023-01-05T02:12:25.552Z,94.46
2023-01-05T02:13:31.237Z,94.15
2023-01-05T02:14:25.552Z,94.05
2023-01-05T02:15:25.618Z,93.95
2023-01-05T02:16:25.648Z,93.74
2023-01-05T02:17:25.515Z,93.74
2023-01-05T02:18:25.506Z,93.74
2023-01-05T02:19:25.513Z,93.74
2023-01-05T02:20:25.472Z,93.95
2023-01-05T02:21:25.509Z,94.05
2023-01-05T02:22:25.464Z,93.95
2023-01-05T02:23:25.487Z,93.85
2023-01-05T02:24:25.424Z,93.33
2023-01-05T02:25:25.463Z,93.08
2023-01-05T02:26:25.409Z,92.98
2023-01-05T02:27:25.449Z,92.98
2023-01-05T02:28:25.400Z,92.68
2023-01-05T02:29:25.401Z,92.36
2023-01-05T02:30:25.471Z,92.36
2023-01-05T02:31:25.480Z,92.47
2023-01-05T02:32:25.368Z,92.57
2023-01-05T02:33:25.388Z,92.36
2023-01-05T02:34:25.335Z,92.06
2023-01-05T02:35:25.405Z,92.36
2023-01-05T02:36:28.659Z,92.36
2023-01-05T02:37:25.314Z,92.36
2023-01-05T02:38:25.309Z,92.47
2023-01-05T02:39:25.312Z,92.47
2023-01-05T02:40:25.261Z,92.47
2023-01-05T02:41:25.253Z,92.27
2023-01-05T02:42:25.238Z,92.16
2023-01-05T02:43:25.252Z,92.27
2023-01-05T02:44:25.251Z,92.36
2023-01-05T02:45:25.296Z,92.47
2023-01-05T02:46:25.249Z,92.06
2023-01-05T02:47:25.243Z,92.06
2023-01-05T02:48:25.195Z,91.96
2023-01-05T02:49:25.200Z,92.16
2023-01-05T02:50:25.191Z,91.86
2023-01-05T02:51:25.159Z,91.86
2023-01-05T02:52:25.138Z,92.16
2023-01-05T02:53:25.166Z,92.16
2023-01-05T02:54:25.124Z,91.96
2023-01-05T02:55:25.211Z,91.96
2023-01-05T02:56:25.106Z,92.06
2023-01-05T02:57:25.090Z,92.27
2023-01-05T02:58:25.136Z,92.36
2023-01-05T02:59:25.096Z,92.98
2023-01-05T03:00:25.071Z,91.44
2023-01-05T03:01:25.236Z,91.44
2023-01-05T03:02:25.261Z,91.03
2023-01-05T03:03:25.137Z,90.26
2023-01-05T03:04:25.037Z,88.21
2023-01-05T03:05:25.034Z,87.70
2023-01-05T03:06:25.014Z,88.10
2023-01-05T03:07:25.078Z,86.57
2023-01-05T03:08:32.063Z,88.10
2023-01-05T03:09:24.990Z,87.59
2023-01-05T03:10:25.056Z,88.10
2023-01-05T03:11:25.022Z,86.05
2023-01-05T03:12:24.966Z,86.87
2023-01-05T03:13:25.006Z,87.38
2023-01-05T03:14:24.954Z,86.36
2023-01-05T03:15:24.973Z,87.08
2023-01-05T03:16:25.101Z,86.87
2023-01-05T03:17:24.898Z,87.08
2023-01-05T03:18:24.884Z,86.30
2023-01-05T03:19:24.882Z,86.30
2023-01-05T03:20:24.874Z,86.30
2023-01-05T03:21:24.856Z,86.71
2023-01-05T03:22:24.877Z,86.81
2023-01-05T03:23:24.859Z,86.60
2023-01-05T03:24:24.838Z,86.50
2023-01-05T03:25:24.823Z,86.60
2023-01-05T03:26:24.811Z,85.78
2023-01-05T03:27:24.810Z,85.27
2023-01-05T03:28:24.827Z,85.06
2023-01-05T03:29:24.799Z,85.58
2023-01-05T03:30:24.789Z,85.58
2023-01-05T03:31:24.901Z,85.58
2023-01-05T03:32:24.754Z,85.78
2023-01-05T03:33:24.731Z,86.19
2023-01-05T03:34:24.763Z,86.13
2023-01-05T03:35:24.719Z,85.62
2023-01-05T03:36:24.706Z,85.11
2023-01-05T03:37:24.688Z,85.41
2023-01-05T03:38:24.695Z,85.00
2023-01-05T03:39:24.678Z,85.00
2023-01-05T03:40:24.718Z,84.69
2023-01-05T03:41:24.666Z,84.18
2023-01-05T03:42:24.666Z,84.04
2023-01-05T03:43:24.659Z,84.14
2023-01-05T03:44:24.630Z,84.04
2023-01-05T03:45:24.626Z,83.83
2023-01-05T03:46:24.745Z,83.83
2023-01-05T03:47:24.587Z,84.14
2023-01-05T03:48:24.587Z,83.53
2023-01-05T03:49:24.578Z,83.32
2023-01-05T03:50:24.586Z,83.73
2023-01-05T03:51:24.583Z,83.22
2023-01-05T03:52:24.578Z,83.22
2023-01-05T03:53:24.540Z,83.63
2023-01-05T03:54:24.529Z,83.73
2023-01-05T03:55:24.525Z,83.32
2023-01-05T03:56:24.497Z,83.42
2023-01-05T03:57:24.500Z,83.22
2023-01-05T03:58:24.503Z,83.53
2023-01-05T03:59:24.483Z,83.73
2023-01-05T04:00:24.452Z,83.73
2023-01-05T04:01:24.588Z,83.83
2023-01-05T04:02:24.620Z,84.25
2023-01-05T04:03:31.063Z,84.25
2023-01-05T04:04:24.468Z,84.14
2023-01-05T04:05:24.436Z,83.83
2023-01-05T04:06:24.429Z,84.04
2023-01-05T04:07:24.409Z,83.83
2023-01-05T04:08:24.383Z,83.94
2023-01-05T04:09:24.404Z,83.94
2023-01-05T04:10:24.363Z,84.04
2023-01-05T04:11:24.370Z,84.04
2023-01-05T04:12:24.344Z,83.73
2023-01-05T04:13:24.337Z,83.94
2023-01-05T04:14:24.310Z,83.83
2023-01-05T04:15:24.314Z,83.53
2023-01-05T04:16:24.345Z,83.12
2023-01-05T04:17:24.603Z,83.42
2023-01-05T04:18:24.283Z,83.42
2023-01-05T04:19:24.293Z,83.32
2023-01-05T04:20:24.327Z,83.12
2023-01-05T04:21:24.279Z,83.53
2023-01-05T04:22:27.396Z,83.32
2023-01-05T04:23:24.280Z,83.22
2023-01-05T04:24:24.227Z,83.42
2023-01-05T04:25:24.206Z,83.53
2023-01-05T04:26:24.202Z,83.63
2023-01-05T04:27:24.199Z,83.53
2023-01-05T04:28:24.195Z,83.22
2023-01-05T04:29:24.215Z,83.01
2023-01-05T04:30:24.176Z,83.12
2023-01-05T04:31:24.266Z,83.32
2023-01-05T04:32:24.155Z,83.32
2023-01-05T04:33:24.151Z,83.01
2023-01-05T04:34:24.166Z,83.12
2023-01-05T04:35:24.123Z,83.22
2023-01-05T04:36:24.107Z,83.32
2023-01-05T04:37:24.079Z,83.53
2023-01-05T04:38:24.069Z,83.63
2023-01-05T04:39:24.072Z,83.22
2023-01-05T04:40:24.086Z,83.39
2023-01-05T04:41:24.055Z,83.28
2023-01-05T04:42:24.044Z,82.87
2023-01-05T04:43:24.037Z,82.67
2023-01-05T04:44:24.048Z,82.77
2023-01-05T04:45:24.027Z,82.77
2023-01-05T04:46:24.086Z,82.77
2023-01-05T04:47:24.011Z,82.77
2023-01-05T04:48:23.988Z,82.87
2023-01-05T04:49:23.993Z,82.87
2023-01-05T04:50:23.982Z,82.87
2023-01-05T04:51:23.944Z,82.67
2023-01-05T04:52:23.951Z,82.67
2023-01-05T04:53:23.948Z,82.26
2023-01-05T04:54:23.917Z,82.26
2023-01-05T04:55:23.915Z,82.56
2023-01-05T04:56:23.910Z,82.05
2023-01-05T04:57:23.914Z,82.05
2023-01-05T04:58:23.904Z,82.26
2023-01-05T04:59:23.856Z,81.64
2023-01-05T05:00:23.851Z,81.95
2023-01-05T05:01:23.907Z,81.34
2023-01-05T05:02:24.019Z,81.54
2023-01-05T05:03:25.712Z,81.64
2023-01-05T05:04:23.854Z,81.64
2023-01-05T05:05:23.799Z,81.34
2023-01-05T05:06:23.790Z,80.41
2023-01-05T05:07:23.822Z,80.51
2023-01-05T05:08:23.791Z,80.10
2023-01-05T05:09:23.775Z,80.31
2023-01-05T05:10:23.796Z,80.00
2023-01-05T05:11:23.754Z,80.31
2023-01-05T05:12:23.758Z,79.59
2023-01-05T05:13:23.731Z,79.90
2023-01-05T05:14:23.723Z,79.49
2023-01-05T05:15:23.712Z,80.00
2023-01-05T05:16:24.115Z,80.21
2023-01-05T05:17:23.684Z,80.31
2023-01-05T05:18:23.670Z,79.49
2023-01-05T05:19:23.658Z,79.38
2023-01-05T05:20:23.656Z,79.59
2023-01-05T05:21:23.647Z,79.69
2023-01-05T05:22:23.665Z,80.41
2023-01-05T05:23:23.627Z,80.45
2023-01-05T05:24:23.625Z,80.76
2023-01-05T05:25:23.621Z,80.55
2023-01-05T05:26:23.597Z,80.24
2023-01-05T05:27:23.574Z,79.52
2023-01-05T05:28:23.616Z,79.11
2023-01-05T05:29:23.569Z,79.63
2023-01-05T05:30:23.554Z,79.90
2023-01-05T05:31:23.609Z,78.46
2023-01-05T05:32:23.548Z,78.25
2023-01-05T05:33:23.532Z,78.46
2023-01-05T05:34:23.537Z,78.77
2023-01-05T05:35:23.507Z,78.97
2023-01-05T05:36:23.503Z,79.08
2023-01-05T05:37:23.489Z,79.38
2023-01-05T05:38:23.492Z,78.87
2023-01-05T05:39:23.450Z,79.08
2023-01-05T05:40:23.481Z,78.56
2023-01-05T05:41:23.459Z,78.56
2023-01-05T05:42:23.434Z,78.56
2023-01-05T05:43:23.424Z,78.97
2023-01-05T05:44:23.483Z,79.08
2023-01-05T05:45:23.410Z,79.08
2023-01-05T05:46:23.456Z,79.18
2023-01-05T05:47:23.395Z,78.97
2023-01-05T05:48:23.373Z,78.77
2023-01-05T05:49:23.377Z,79.18
2023-01-05T05:50:23.374Z,79.80
2023-01-05T05:51:23.360Z,80.00
2023-01-05T05:52:23.384Z,79.90
2023-01-05T05:53:23.331Z,80.31
2023-01-05T05:54:23.314Z,79.90
2023-01-05T05:55:23.298Z,79.80
2023-01-05T05:56:23.306Z,80.10
2023-01-05T05:57:23.278Z,80.41
2023-01-05T05:58:23.307Z,80.10
2023-01-05T05:59:23.272Z,80.51
2023-01-05T06:00:23.275Z,80.62
2023-01-05T06:01:23.271Z,80.76
2023-01-05T06:02:23.307Z,80.55
2023-01-05T06:03:23.308Z,80.24
2023-01-05T06:04:23.244Z,80.45
2023-01-05T06:05:23.194Z,80.45
2023-01-05T06:06:23.200Z,81.27
2023-01-05T06:07:23.182Z,81.57
2023-01-05T06:08:23.177Z,81.88
2023-01-05T06:09:23.147Z,81.37
2023-01-05T06:10:23.168Z,81.37
2023-01-05T06:11:23.146Z,81.88
2023-01-05T06:12:23.146Z,80.76
2023-01-05T06:13:23.121Z,81.37
2023-01-05T06:14:23.109Z,81.37
2023-01-05T06:15:23.115Z,81.16
2023-01-05T06:16:23.226Z,81.27
2023-01-05T06:17:23.097Z,81.06
2023-01-05T06:18:23.097Z,80.14
2023-01-05T06:19:23.055Z,79.93
2023-01-05T06:20:23.063Z,80.24
2023-01-05T06:21:23.039Z,79.83
2023-01-05T06:22:23.050Z,80.04
2023-01-05T06:23:23.001Z,80.14
2023-01-05T06:24:23.015Z,80.35
2023-01-05T06:25:22.994Z,80.65
2023-01-05T06:26:22.973Z,79.73
2023-01-05T06:27:23.019Z,80.04
2023-01-05T06:28:22.972Z,80.04
2023-01-05T06:29:22.959Z,79.73
2023-01-05T06:30:22.948Z,79.73
2023-01-05T06:31:22.972Z,80.14
2023-01-05T06:32:22.921Z,80.14
2023-01-05T06:33:22.955Z,80.14
2023-01-05T06:34:22.902Z,80.35
2023-01-05T06:35:22.905Z,79.73
2023-01-05T06:36:22.896Z,80.35
2023-01-05T06:37:22.925Z,80.65
2023-01-05T06:38:22.863Z,80.55
2023-01-05T06:39:22.879Z,80.35
2023-01-05T06:40:22.841Z,80.45
2023-01-05T06:41:22.839Z,80.24
2023-01-05T06:42:23.716Z,79.83
2023-01-05T06:43:22.801Z,79.93
2023-01-05T06:44:22.808Z,80.04
2023-01-05T06:45:22.800Z,80.14
2023-01-05T06:46:22.867Z,80.55
2023-01-05T06:47:22.764Z,80.35
2023-01-05T06:48:22.797Z,80.24
2023-01-05T06:49:22.749Z,80.55
2023-01-05T06:50:22.741Z,80.55
2023-01-05T06:51:22.734Z,80.45
2023-01-05T06:52:22.736Z,80.55
2023-01-05T06:53:22.718Z,80.65
2023-01-05T06:54:22.735Z,80.45
2023-01-05T06:55:22.693Z,80.35
2023-01-05T06:56:22.699Z,80.76
2023-01-05T06:57:22.676Z,80.45
2023-01-05T06:58:22.681Z,80.24
2023-01-05T06:59:22.672Z,80.04
2023-01-05T07:00:22.634Z,80.35
2023-01-05T07:01:22.737Z,80.55
2023-01-05T07:02:22.692Z,80.55
2023-01-05T07:03:22.610Z,80.55
2023-01-05T07:04:22.670Z,80.65
2023-01-05T07:05:22.640Z,80.65
2023-01-05T07:06:22.583Z,80.65
2023-01-05T07:07:22.601Z,80.55
2023-01-05T07:08:22.574Z,80.55
2023-01-05T07:09:22.565Z,80.76
2023-01-05T07:10:22.567Z,80.86
2023-01-05T07:11:22.564Z,80.86
2023-01-05T07:12:22.512Z,80.96
2023-01-05T07:13:22.522Z,80.96
2023-01-05T07:14:22.521Z,80.96
2023-01-05T07:15:22.476Z,80.96
2023-01-05T07:16:22.545Z,81.06
2023-01-05T07:17:22.479Z,81.06
2023-01-05T07:18:22.453Z,81.27
2023-01-05T07:19:22.441Z,81.27
2023-01-05T07:20:22.427Z,81.27
2023-01-05T07:21:22.435Z,81.16
2023-01-05T07:22:22.435Z,81.06
2023-01-05T07:23:22.442Z,80.96
2023-01-05T07:24:22.408Z,80.76
2023-01-05T07:25:22.402Z,80.55
2023-01-05T07:26:22.400Z,80.76
2023-01-05T07:27:22.395Z,80.76
2023-01-05T07:28:22.423Z,80.76
2023-01-05T07:29:22.346Z,80.45
2023-01-05T07:30:22.357Z,80.65
2023-01-05T07:31:22.356Z,80.76
2023-01-05T07:32:22.317Z,81.06
2023-01-05T07:33:22.306Z,81.27
2023-01-05T07:34:22.324Z,81.27
2023-01-05T07:35:22.296Z,81.16
2023-01-05T07:36:22.283Z,80.96
2023-01-05T07:37:22.293Z,81.20
2023-01-05T07:38:22.287Z,81.71
2023-01-05T07:39:22.243Z,81.51
2023-01-05T07:40:22.267Z,81.41
2023-01-05T07:41:22.235Z,81.62
2023-01-05T07:42:22.235Z,81.71
2023-01-05T07:43:22.226Z,81.92
2023-01-05T07:44:22.203Z,82.03
2023-01-05T07:45:22.391Z,82.23
2023-01-05T07:46:22.245Z,81.92
2023-01-05T07:47:22.169Z,82.13
2023-01-05T07:48:23.754Z,82.03
2023-01-05T07:49:22.159Z,82.03
2023-01-05T07:50:22.170Z,82.13
2023-01-05T07:51:22.153Z,82.03
2023-01-05T07:52:22.123Z,81.71
2023-01-05T07:53:22.103Z,81.71
2023-01-05T07:54:22.109Z,81.62
2023-01-05T07:55:22.089Z,81.71
2023-01-05T07:56:22.074Z,81.92
2023-01-05T07:57:22.091Z,81.82
2023-01-05T07:58:22.060Z,82.03
2023-01-05T07:59:22.038Z,81.82
2023-01-05T08:00:22.082Z,81.92
2023-01-05T08:01:22.167Z,82.23
2023-01-05T08:02:22.111Z,82.03
2023-01-05T08:03:22.036Z,82.03
2023-01-05T08:04:22.037Z,82.03
2023-01-05T08:05:21.992Z,82.23
2023-01-05T08:06:22.002Z,81.82
2023-01-05T08:07:21.953Z,81.92
2023-01-05T08:08:24.517Z,82.33
2023-01-05T08:09:21.938Z,82.64
2023-01-05T08:10:21.935Z,82.23
2023-01-05T08:11:21.937Z,82.13
2023-01-05T08:12:21.936Z,82.33
2023-01-05T08:13:21.903Z,82.33
2023-01-05T08:14:21.938Z,82.54
2023-01-05T08:15:21.895Z,82.64
2023-01-05T08:16:21.918Z,82.75
2023-01-05T08:17:21.879Z,82.64
2023-01-05T08:18:21.879Z,82.54
2023-01-05T08:19:21.841Z,82.03
2023-01-05T08:20:21.845Z,81.92
2023-01-05T08:21:21.828Z,81.82
2023-01-05T08:22:21.838Z,82.23
2023-01-05T08:23:26.249Z,82.43
2023-01-05T08:24:21.798Z,82.33
2023-01-05T08:25:21.800Z,82.54
2023-01-05T08:26:21.811Z,82.13
2023-01-05T08:27:21.829Z,82.33
2023-01-05T08:28:21.786Z,82.64
2023-01-05T08:29:21.762Z,82.64
2023-01-05T08:30:21.733Z,82.54
2023-01-05T08:31:22.106Z,82.54
2023-01-05T08:32:21.711Z,83.05
2023-01-05T08:33:21.702Z,83.50
2023-01-05T08:34:21.702Z,83.29
2023-01-05T08:35:21.671Z,83.09
2023-01-05T08:36:21.671Z,83.26
2023-01-05T08:37:21.688Z,83.15
2023-01-05T08:38:21.657Z,82.54
2023-01-05T08:39:21.643Z,82.95
2023-01-05T08:40:21.642Z,83.05
2023-01-05T08:41:21.666Z,82.84
2023-01-05T08:42:21.667Z,82.95
2023-01-05T08:43:21.593Z,82.64
2023-01-05T08:44:21.586Z,82.33
2023-01-05T08:45:21.580Z,82.13
2023-01-05T08:46:21.618Z,81.51
2023-01-05T08:47:26.464Z,81.82
2023-01-05T08:48:21.601Z,81.82
2023-01-05T08:49:21.536Z,81.10
2023-01-05T08:50:21.525Z,81.10
2023-01-05T08:51:21.520Z,81.41
2023-01-05T08:52:21.519Z,81.30
2023-01-05T08:53:21.526Z,81.00
2023-01-05T08:54:21.530Z,81.30
2023-01-05T08:55:21.494Z,81.62
2023-01-05T08:56:21.506Z,81.20
2023-01-05T08:57:21.501Z,81.10
2023-01-05T08:58:21.460Z,81.00
2023-01-05T08:59:21.490Z,81.10
2023-01-05T09:00:21.430Z,81.20
2023-01-05T09:01:21.536Z,81.30
2023-01-05T09:02:25.482Z,81.65
2023-01-05T09:03:21.425Z,81.41
2023-01-05T09:04:21.435Z,81.65
2023-01-05T09:05:21.377Z,81.45
2023-01-05T09:06:21.366Z,81.65
2023-01-05T09:07:21.354Z,81.76
2023-01-05T09:08:21.350Z,81.55
2023-01-05T09:09:21.335Z,81.86
2023-01-05T09:10:21.358Z,82.03
2023-01-05T09:11:21.337Z,82.13
2023-01-05T09:12:21.311Z,81.92
2023-01-05T09:13:21.312Z,82.03
2023-01-05T09:14:21.303Z,81.92
2023-01-05T09:15:21.307Z,81.92
2023-01-05T09:17:21.270Z,82.47
2023-01-05T09:18:21.236Z,82.57
2023-01-05T09:19:21.246Z,82.47
2023-01-05T09:20:21.236Z,82.57
2023-01-05T09:21:21.249Z,82.68
2023-01-05T09:22:21.195Z,82.68
2023-01-05T09:23:21.200Z,82.57
2023-01-05T09:24:21.198Z,82.68
2023-01-05T09:25:21.192Z,82.57
2023-01-05T09:26:21.168Z,82.68
2023-01-05T09:27:21.244Z,82.57
2023-01-05T09:28:21.156Z,82.89
2023-01-05T09:29:21.142Z,83.19
2023-01-05T09:30:21.212Z,82.89
2023-01-05T09:31:21.175Z,83.09
2023-01-05T09:32:21.092Z,82.89
2023-01-05T09:33:21.417Z,82.99
2023-01-05T09:34:21.083Z,82.95
2023-01-05T09:35:21.080Z,82.75
2023-01-05T09:36:21.068Z,82.64
2023-01-05T09:37:21.062Z,83.05
2023-01-05T09:38:21.034Z,83.26
2023-01-05T09:39:21.073Z,83.15
2023-01-05T09:40:21.063Z,83.05
2023-01-05T09:41:21.038Z,83.46
2023-01-05T09:42:21.016Z,83.05
2023-01-05T09:43:20.992Z,83.77
2023-01-05T09:44:20.982Z,84.22
2023-01-05T09:45:21.004Z,84.12
2023-01-05T09:46:21.043Z,84.22
2023-01-05T09:47:20.978Z,84.80
2023-01-05T09:48:20.942Z,85.25
2023-01-05T09:49:20.986Z,85.46
2023-01-05T09:50:21.011Z,85.25
2023-01-05T09:51:20.993Z,85.14
2023-01-05T09:52:21.001Z,85.66
2023-01-05T09:53:20.913Z,86.07
2023-01-05T09:54:20.911Z,86.58
2023-01-05T09:55:20.881Z,86.58
2023-01-05T09:56:42.297Z,86.27
2023-01-05T09:57:20.870Z,85.55
2023-01-05T09:58:26.269Z,85.86
2023-01-05T09:59:20.842Z,85.55
2023-01-05T10:00:20.908Z,85.35
2023-01-05T10:01:20.845Z,85.97
2023-01-05T10:02:20.800Z,85.97
2023-01-05T10:03:53.660Z,85.66
2023-01-05T10:04:24.072Z,85.14
2023-01-05T10:05:20.962Z,85.66
2023-01-05T10:06:20.770Z,85.14
2023-01-05T10:07:20.778Z,85.46
2023-01-05T10:08:20.744Z,85.41
2023-01-05T10:09:20.739Z,83.36
2023-01-05T10:10:26.488Z,82.95
2023-01-05T10:11:20.706Z,83.67
2023-01-05T10:12:20.693Z,83.77
2023-01-05T10:13:20.694Z,83.26
2023-01-05T10:14:20.668Z,83.67
2023-01-05T10:15:20.685Z,83.36
2023-01-05T10:16:23.420Z,82.64
2023-01-05T10:18:20.675Z,83.15
2023-01-05T10:19:20.835Z,82.75
2023-01-05T10:20:20.681Z,82.33
2023-01-05T10:21:20.602Z,82.43
2023-01-05T10:22:20.583Z,81.92
2023-01-05T10:23:20.598Z,82.70
2023-01-05T10:24:20.624Z,82.29
2023-01-05T10:25:20.598Z,82.91
2023-01-05T10:26:20.548Z,82.40
2023-01-05T10:27:25.637Z,81.88
2023-01-05T10:28:20.546Z,81.48
2023-01-05T10:29:20.544Z,81.78
2023-01-05T10:30:20.532Z,81.78
2023-01-05T10:31:20.585Z,80.86
2023-01-05T10:32:20.508Z,80.55
2023-01-05T10:33:38.989Z,81.37
2023-01-05T10:34:20.476Z,81.57
2023-01-05T10:35:42.276Z,81.78
2023-01-05T10:36:41.312Z,82.70
2023-01-05T10:37:20.444Z,84.25
2023-01-05T10:38:20.437Z,84.96
2023-01-05T10:39:20.451Z,85.27
2023-01-05T10:40:20.441Z,84.96
2023-01-05T10:41:20.399Z,83.63
2023-01-05T10:42:20.394Z,83.12
2023-01-05T10:43:20.400Z,83.32
2023-01-05T10:44:20.384Z,82.40
2023-01-05T10:45:20.398Z,81.37
2023-01-05T10:46:32.534Z,80.55
2023-01-05T10:47:20.383Z,80.96
2023-01-05T10:48:20.355Z,79.38
2023-01-05T10:49:20.339Z,79.59
2023-01-05T10:50:20.306Z,80.10
2023-01-05T10:51:20.324Z,80.72
2023-01-05T10:52:20.295Z,82.56
2023-01-05T10:53:20.298Z,83.80
2023-01-05T10:54:20.300Z,85.38
2023-01-05T10:55:20.274Z,85.68
2023-01-05T10:56:20.260Z,86.40
2023-01-05T10:57:20.261Z,85.47
2023-01-05T10:58:20.231Z,85.11
2023-01-05T10:59:20.307Z,84.80
2023-01-05T11:00:20.202Z,85.62
2023-01-05T11:01:20.358Z,86.03
2023-01-05T11:02:20.313Z,85.52
2023-01-05T11:03:33.453Z,84.49
2023-01-05T11:04:34.226Z,84.28
2023-01-05T11:05:20.263Z,84.28
2023-01-05T11:06:20.150Z,82.13
2023-01-05T11:07:20.162Z,81.57
2023-01-05T11:08:20.133Z,81.57
2023-01-05T11:09:22.453Z,81.48
2023-01-05T11:10:20.113Z,81.88
2023-01-05T11:11:20.125Z,82.40
2023-01-05T11:12:20.095Z,81.48
2023-01-05T11:13:20.086Z,81.88
2023-01-05T11:14:20.071Z,81.78
2023-01-05T11:15:20.069Z,81.88
2023-01-05T11:16:20.201Z,80.86
2023-01-05T11:17:20.055Z,80.45
2023-01-05T11:18:20.026Z,80.55
2023-01-05T11:19:20.007Z,80.65
2023-01-05T11:20:19.986Z,80.72
2023-01-05T11:21:19.982Z,81.85
2023-01-05T11:22:20.003Z,81.43
2023-01-05T11:23:19.976Z,81.23
2023-01-05T11:24:19.970Z,81.54
2023-01-05T11:25:19.967Z,79.38
2023-01-05T11:26:19.983Z,79.38
2023-01-05T11:27:19.965Z,78.02
2023-01-05T11:28:19.983Z,78.42
2023-01-05T11:29:20.028Z,78.74
2023-01-05T11:30:19.929Z,78.53
2023-01-05T11:31:19.980Z,78.83
2023-01-05T11:32:19.897Z,78.12
2023-01-05T11:33:25.042Z,79.04
2023-01-05T11:34:19.875Z,78.22
2023-01-05T11:35:19.866Z,78.22
2023-01-05T11:36:19.885Z,78.32
2023-01-05T11:37:19.847Z,78.53
2023-01-05T11:38:19.870Z,79.14
2023-01-05T11:39:19.853Z,78.42
2023-01-05T11:40:19.811Z,78.12
2023-01-05T11:41:19.811Z,77.29
2023-01-05T11:42:24.926Z,77.09
2023-01-05T11:43:19.789Z,76.54
2023-01-05T11:44:19.811Z,77.16
2023-01-05T11:45:19.769Z,76.14
2023-01-05T11:46:19.822Z,76.24
2023-01-05T11:47:19.743Z,76.17
2023-01-05T11:48:19.796Z,76.14
2023-01-05T11:49:19.710Z,76.95
2023-01-05T11:50:19.716Z,76.48
2023-01-05T11:51:25.893Z,76.85
2023-01-05T11:52:19.702Z,76.03
2023-01-05T11:53:19.679Z,76.24
2023-01-05T11:54:19.665Z,76.95
2023-01-05T11:55:19.656Z,77.20
2023-01-05T11:56:19.683Z,78.22
2023-01-05T11:57:19.651Z,78.02
2023-01-05T11:58:19.677Z,77.71
2023-01-05T11:59:19.617Z,78.42
2023-01-05T12:00:19.635Z,78.32
2023-01-05T12:01:19.616Z,78.42
2023-01-05T12:02:19.633Z,79.14
2023-01-05T12:03:19.581Z,79.55
2023-01-05T12:04:19.660Z,78.42
2023-01-05T12:05:19.571Z,78.32
2023-01-05T12:06:19.541Z,79.24
2023-01-05T12:07:19.538Z,78.63
2023-01-05T12:08:19.664Z,78.83
2023-01-05T12:09:19.733Z,79.24
2023-01-05T12:10:19.519Z,78.42
2023-01-05T12:11:19.481Z,78.02
2023-01-05T12:12:19.481Z,77.61
2023-01-05T12:13:19.513Z,77.36
2023-01-05T12:14:19.501Z,77.50
2023-01-05T12:15:19.441Z,75.86
2023-01-05T12:16:19.510Z,74.90
2023-01-05T12:17:19.429Z,75.62
2023-01-05T12:18:19.409Z,75.21
2023-01-05T12:19:19.419Z,75.93
2023-01-05T12:20:19.442Z,76.54
2023-01-05T12:21:19.406Z,76.54
2023-01-05T12:22:19.382Z,76.34
2023-01-05T12:23:19.369Z,76.85
2023-01-05T12:24:19.370Z,76.44
2023-01-05T12:25:19.349Z,76.44
2023-01-05T12:26:19.358Z,76.34
2023-01-05T12:27:19.340Z,76.85
2023-01-05T12:28:35.506Z,76.24
2023-01-05T12:33:44.380Z,76.68
2023-01-05T12:34:11.401Z,76.03
2023-01-05T12:34:19.266Z,77.40
2023-01-05T12:35:19.257Z,76.58
2023-01-05T12:36:19.381Z,76.99
2023-01-05T12:37:19.235Z,76.78
2023-01-05T12:38:19.231Z,76.89
2023-01-05T12:39:19.226Z,77.20
2023-01-05T12:40:19.194Z,77.20
2023-01-05T12:41:19.191Z,76.17
2023-01-05T12:42:19.175Z,76.58
2023-01-05T12:43:19.413Z,76.99
2023-01-05T12:44:19.180Z,77.40
2023-01-05T12:45:19.159Z,77.29
2023-01-05T12:46:19.180Z,77.29
2023-01-05T12:47:19.160Z,77.71
2023-01-05T12:48:19.141Z,78.74
2023-01-05T12:49:19.149Z,78.63
2023-01-05T12:50:19.108Z,78.02
2023-01-05T12:51:19.096Z,78.12
2023-01-05T12:52:19.079Z,78.12
2023-01-05T12:53:19.102Z,79.80
2023-01-05T12:54:19.063Z,80.41
2023-01-05T12:55:19.049Z,80.82
2023-01-05T12:56:19.038Z,81.64
2023-01-05T12:57:19.060Z,81.43